createdAt,value
2022-11-26T00:00:25.705Z,2.60
2022-11-26T00:02:54.555Z,2.73
2022-11-26T00:05:23.360Z,2.97
2022-11-26T00:07:56.200Z,1.63
2022-11-26T00:10:25.920Z,3.03
2022-11-26T00:12:53.718Z,4.23
2022-11-26T00:15:21.202Z,1.73
2022-11-26T00:17:49.360Z,2.53
2022-11-26T00:20:19.918Z,3.73
2022-11-26T00:22:51.920Z,2.93
2022-11-26T00:25:27.560Z,3.37
2022-11-26T00:27:56.802Z,2.27
2022-11-26T00:30:28.281Z,2.47
2022-11-26T00:32:56.364Z,3.67
2022-11-26T00:35:24.200Z,2.23
2022-11-26T00:37:56.726Z,3.90
2022-11-26T00:40:25.800Z,2.57
2022-11-26T00:42:57.413Z,3.40
2022-11-26T00:45:30.015Z,2.53
2022-11-26T00:47:57.845Z,2.20
2022-11-26T00:50:27.278Z,2.87
2022-11-26T00:52:56.576Z,2.50
2022-11-26T00:55:28.238Z,2.90
2022-11-26T00:57:55.762Z,2.03
2022-11-26T01:00:24.640Z,3.30
2022-11-26T01:02:52.126Z,3.33
2022-11-26T01:05:20.159Z,1.80
2022-11-26T01:07:48.261Z,2.67
2022-11-26T01:10:19.801Z,3.77
2022-11-26T01:12:47.520Z,2.27
2022-11-26T01:15:15.083Z,2.00
2022-11-26T01:17:43.120Z,1.50
2022-11-26T01:20:17.598Z,1.90
2022-11-26T01:22:47.222Z,2.27
2022-11-26T01:25:14.640Z,3.80
2022-11-26T01:27:42.119Z,3.00
2022-11-26T01:30:14.920Z,2.13
2022-11-26T01:32:42.327Z,3.43
2022-11-26T01:35:10.358Z,1.40
2022-11-26T01:37:37.719Z,2.33
2022-11-26T01:40:05.639Z,2.27
2022-11-26T01:42:38.562Z,2.73
2022-11-26T01:45:14.723Z,3.27
2022-11-26T01:47:42.640Z,1.03
2022-11-26T01:50:31.526Z,1.73
2022-11-26T01:53:13.001Z,2.53
2022-11-26T01:55:42.879Z,2.40
2022-11-26T01:58:12.519Z,1.77
2022-11-26T02:00:40.280Z,1.67
2022-11-26T02:03:08.400Z,1.87
2022-11-26T02:05:39.684Z,1.63
2022-11-26T02:08:07.580Z,1.50
2022-11-26T02:10:35.522Z,5.23
2022-11-26T02:13:03.049Z,2.43
2022-11-26T02:15:34.040Z,2.80
2022-11-26T02:18:06.080Z,2.00
2022-11-26T02:20:48.239Z,1.47
2022-11-26T02:23:29.081Z,1.83
2022-11-26T02:26:15.001Z,1.80
2022-11-26T02:28:48.238Z,2.67
2022-11-26T02:31:25.292Z,2.60
2022-11-26T02:34:05.001Z,1.57
2022-11-26T02:36:44.640Z,2.10
2022-11-26T02:39:15.842Z,2.90
2022-11-26T02:41:44.760Z,1.20
2022-11-26T02:44:12.522Z,1.40
2022-11-26T02:46:41.161Z,1.60
2022-11-26T02:49:10.464Z,1.33
2022-11-26T02:51:38.324Z,2.13
2022-11-26T02:54:06.381Z,0.70
2022-11-26T02:56:33.919Z,2.00
2022-11-26T02:59:01.358Z,2.00
2022-11-26T03:01:33.352Z,1.87
2022-11-26T03:04:02.753Z,2.07
2022-11-26T03:06:32.519Z,1.30
2022-11-26T03:08:59.959Z,2.07
2022-11-26T03:11:27.677Z,2.37
2022-11-26T03:13:55.251Z,1.03
2022-11-26T03:16:24.975Z,3.40
2022-11-26T03:18:52.561Z,2.07
2022-11-26T03:21:20.038Z,1.00
2022-11-26T03:23:47.441Z,2.40
2022-11-26T03:26:14.920Z,1.07
2022-11-26T03:28:42.279Z,1.77
2022-11-26T03:31:09.810Z,4.43
2022-11-26T03:33:37.400Z,1.90
2022-11-26T03:36:04.920Z,1.17
2022-11-26T03:38:32.441Z,2.27
2022-11-26T03:41:00.920Z,1.50
2022-11-26T03:43:28.562Z,2.57
2022-11-26T03:45:56.004Z,1.13
2022-11-26T03:48:25.879Z,1.43
2022-11-26T03:50:53.159Z,1.17
2022-11-26T03:53:20.604Z,2.87
2022-11-26T03:55:48.687Z,1.43
2022-11-26T03:58:16.084Z,1.03
2022-11-26T04:00:43.644Z,1.90
2022-11-26T04:03:12.141Z,1.50
2022-11-26T04:05:39.652Z,1.17
2022-11-26T04:08:07.200Z,1.20
2022-11-26T04:10:34.680Z,2.47
2022-11-26T04:13:02.162Z,1.60
2022-11-26T04:15:29.600Z,0.87
2022-11-26T04:17:56.963Z,1.80
2022-11-26T04:20:27.480Z,2.10
2022-11-26T04:22:54.879Z,2.17
2022-11-26T04:25:22.279Z,1.27
2022-11-26T04:27:49.639Z,2.53
2022-11-26T04:30:17.125Z,2.23
2022-11-26T04:32:44.481Z,2.30
2022-11-26T04:35:11.840Z,2.47
2022-11-26T04:37:39.119Z,1.20
2022-11-26T04:40:06.921Z,2.33
2022-11-26T04:42:34.337Z,1.67
2022-11-26T04:45:01.908Z,3.73
2022-11-26T04:47:29.339Z,1.73
2022-11-26T04:49:56.923Z,2.73
2022-11-26T04:52:26.600Z,2.40
2022-11-26T04:54:54.129Z,0.73
2022-11-26T04:57:21.523Z,0.80
2022-11-26T04:59:48.846Z,1.90
2022-11-26T05:02:16.258Z,1.70
2022-11-26T05:04:43.809Z,1.27
2022-11-26T05:07:11.200Z,2.73
2022-11-26T05:09:38.682Z,1.20
2022-11-26T05:12:06.227Z,0.80
2022-11-26T05:14:33.674Z,1.60
2022-11-26T05:17:01.222Z,2.70
2022-11-26T05:19:28.627Z,5.00
2022-11-26T05:21:55.925Z,1.03
2022-11-26T05:24:23.287Z,1.33
2022-11-26T05:26:56.470Z,2.10
2022-11-26T05:29:24.520Z,5.77
2022-11-26T05:31:52.128Z,1.40
2022-11-26T05:34:19.747Z,2.30
2022-11-26T05:36:47.047Z,1.27
2022-11-26T05:39:14.341Z,2.40
2022-11-26T05:41:41.722Z,1.17
2022-11-26T05:44:09.126Z,1.67
2022-11-26T05:46:38.681Z,3.03
2022-11-26T05:49:06.011Z,2.53
2022-11-26T05:51:33.402Z,5.83
2022-11-26T05:54:00.746Z,3.10
2022-11-26T05:56:30.885Z,1.33
2022-11-26T05:59:01.112Z,1.73
2022-11-26T06:01:28.449Z,1.30
2022-11-26T06:03:55.911Z,2.30
2022-11-26T06:06:23.280Z,1.07
2022-11-26T06:08:50.728Z,1.13
2022-11-26T06:11:18.243Z,3.33
2022-11-26T06:13:45.802Z,1.20
2022-11-26T06:16:13.218Z,1.63
2022-11-26T06:18:41.079Z,4.07
2022-11-26T06:21:08.841Z,1.50
2022-11-26T06:23:36.287Z,1.20
2022-11-26T06:26:08.452Z,1.37
2022-11-26T06:28:35.882Z,2.87
2022-11-26T06:31:03.301Z,1.60
2022-11-26T06:33:30.844Z,2.17
2022-11-26T06:36:01.600Z,3.23
2022-11-26T06:38:29.202Z,2.57
2022-11-26T06:41:00.921Z,1.80
2022-11-26T06:43:28.360Z,1.83
2022-11-26T06:45:56.011Z,2.10
2022-11-26T06:48:24.760Z,2.97
2022-11-26T06:50:52.738Z,1.67
2022-11-26T06:53:20.203Z,1.33
2022-11-26T06:55:47.723Z,2.03
2022-11-26T06:58:15.323Z,3.00
2022-11-26T07:00:42.759Z,1.70
2022-11-26T07:03:10.683Z,3.27
2022-11-26T07:05:38.163Z,1.63
2022-11-26T07:08:05.718Z,1.80
2022-11-26T07:10:33.573Z,1.63
2022-11-26T07:13:00.886Z,3.10
2022-11-26T07:15:28.204Z,7.87
2022-11-26T07:17:55.495Z,19.57
2022-11-26T07:20:22.959Z,12.80
2022-11-26T07:22:50.363Z,12.67
2022-11-26T07:25:17.879Z,6.47
2022-11-26T07:27:45.685Z,7.10
2022-11-26T07:30:14.164Z,5.53
2022-11-26T07:32:41.560Z,2.43
2022-11-26T07:35:09.088Z,1.57
2022-11-26T07:37:36.889Z,5.17
2022-11-26T07:40:05.725Z,6.80
2022-11-26T07:42:33.843Z,8.83
2022-11-26T07:45:03.880Z,6.33
2022-11-26T07:47:31.239Z,5.33
2022-11-26T07:49:58.759Z,3.23
2022-11-26T07:52:26.086Z,4.23
2022-11-26T07:54:53.359Z,5.70
2022-11-26T07:57:22.598Z,4.73
2022-11-26T07:59:50.119Z,3.60
2022-11-26T08:02:17.824Z,4.00
2022-11-26T08:04:45.401Z,8.40
2022-11-26T08:07:18.101Z,5.43
2022-11-26T08:09:50.521Z,3.37
2022-11-26T08:12:17.800Z,3.73
2022-11-26T08:14:45.200Z,2.57
2022-11-26T08:17:12.439Z,4.73
2022-11-26T08:19:39.922Z,3.63
2022-11-26T08:22:07.368Z,8.30
2022-11-26T08:24:36.397Z,3.67
2022-11-26T08:27:04.003Z,4.77
2022-11-26T08:29:46.280Z,5.70
2022-11-26T08:32:13.710Z,3.73
2022-11-26T08:34:41.360Z,3.80
2022-11-26T08:37:08.914Z,4.37
2022-11-26T08:39:36.442Z,3.97
2022-11-26T08:42:03.800Z,4.43
2022-11-26T08:44:33.294Z,4.93
2022-11-26T08:47:00.686Z,4.80
2022-11-26T08:49:28.162Z,9.27
2022-11-26T08:51:58.321Z,7.67
2022-11-26T08:54:25.958Z,7.07
2022-11-26T08:56:53.359Z,4.40
2022-11-26T08:59:23.040Z,3.47
2022-11-26T09:01:50.746Z,5.23
2022-11-26T09:04:18.378Z,2.67
2022-11-26T09:06:45.830Z,3.63
2022-11-26T09:09:13.472Z,3.90
2022-11-26T09:12:00.961Z,3.13
2022-11-26T09:14:29.723Z,3.63
2022-11-26T09:16:58.350Z,2.63
2022-11-26T09:19:25.999Z,4.20
2022-11-26T09:21:53.281Z,3.20
2022-11-26T09:24:21.497Z,3.63
2022-11-26T09:26:49.119Z,3.30
2022-11-26T09:29:18.076Z,2.47
2022-11-26T09:32:15.397Z,5.60
2022-11-26T09:34:33.521Z,3.90
2022-11-26T09:37:01.083Z,5.03
2022-11-26T09:39:28.522Z,2.47
2022-11-26T09:42:28.043Z,5.47
2022-11-26T09:45:10.446Z,4.27
2022-11-26T09:47:42.727Z,3.10
2022-11-26T09:50:15.772Z,2.17
2022-11-26T09:53:09.203Z,4.60
2022-11-26T09:55:38.971Z,5.60
2022-11-26T09:58:27.227Z,6.53
2022-11-26T10:00:56.499Z,3.83
2022-11-26T10:03:26.003Z,3.30
2022-11-26T10:06:02.642Z,4.13
2022-11-26T10:08:29.922Z,5.83
2022-11-26T10:11:13.781Z,4.17
2022-11-26T10:13:44.485Z,5.30
2022-11-26T10:16:16.168Z,4.03
2022-11-26T10:18:51.561Z,6.07
2022-11-26T10:21:57.569Z,3.80
2022-11-26T10:24:31.514Z,3.47
2022-11-26T10:27:01.776Z,4.33
2022-11-26T10:29:34.762Z,4.47
2022-11-26T10:32:03.966Z,5.80
2022-11-26T10:34:39.440Z,4.93
2022-11-26T10:37:07.604Z,2.07
2022-11-26T10:39:34.998Z,2.47
2022-11-26T10:42:07.785Z,2.40
2022-11-26T10:44:42.723Z,2.57
2022-11-26T10:47:21.689Z,4.07
2022-11-26T10:49:49.704Z,1.80
2022-11-26T10:52:18.639Z,2.20
2022-11-26T10:54:46.120Z,2.00
2022-11-26T10:57:16.365Z,4.60
2022-11-26T10:59:54.135Z,2.13
2022-11-26T11:02:21.444Z,1.73
2022-11-26T11:04:53.684Z,1.53
2022-11-26T11:07:41.837Z,1.57
2022-11-26T11:10:09.296Z,2.43
2022-11-26T11:12:41.242Z,2.63
2022-11-26T11:15:14.531Z,3.70
2022-11-26T11:17:41.958Z,2.40
2022-11-26T11:20:18.538Z,3.33
2022-11-26T11:22:46.693Z,4.27
2022-11-26T11:25:40.386Z,9.93
2022-11-26T11:28:13.706Z,2.57
2022-11-26T11:30:42.406Z,0.63
2022-11-26T11:33:19.159Z,2.80
2022-11-26T11:35:58.285Z,0.70
2022-11-26T11:38:26.685Z,1.40
2022-11-26T11:40:54.280Z,0.63
2022-11-26T11:43:23.840Z,0.60
2022-11-26T11:45:56.705Z,0.87
2022-11-26T11:48:39.411Z,1.20
2022-11-26T11:51:09.559Z,1.33
2022-11-26T11:53:46.802Z,0.80
2022-11-26T11:56:14.164Z,0.50
2022-11-26T11:58:50.884Z,1.13
2022-11-26T12:01:27.688Z,2.27
2022-11-26T12:04:00.955Z,0.77
2022-11-26T12:06:28.540Z,2.67
2022-11-26T12:09:19.666Z,0.67
2022-11-26T12:11:53.802Z,1.27
2022-11-26T12:14:31.524Z,1.53
2022-11-26T12:17:03.732Z,1.47
2022-11-26T12:19:39.585Z,1.43
2022-11-26T12:22:13.084Z,0.47
2022-11-26T12:24:45.126Z,1.17
2022-11-26T12:27:24.919Z,1.47
2022-11-26T12:30:05.164Z,0.97
2022-11-26T12:32:38.675Z,1.13
2022-11-26T12:35:07.919Z,1.27
2022-11-26T12:37:41.165Z,1.03
2022-11-26T12:40:21.041Z,1.60
2022-11-26T12:43:07.137Z,0.63
2022-11-26T12:45:40.316Z,1.60
2022-11-26T12:48:27.929Z,1.40
2022-11-26T12:51:12.340Z,1.03
2022-11-26T12:53:57.838Z,0.47
2022-11-26T12:56:31.120Z,0.60
2022-11-26T12:59:04.520Z,3.57
2022-11-26T13:01:32.676Z,1.70
2022-11-26T13:04:36.058Z,0.73
2022-11-26T13:07:22.013Z,0.70
2022-11-26T13:10:12.481Z,2.70
2022-11-26T13:12:48.759Z,1.40
2022-11-26T13:15:23.607Z,0.80
2022-11-26T13:17:51.418Z,0.43
2022-11-26T13:20:33.661Z,2.27
2022-11-26T13:23:06.838Z,2.03
2022-11-26T13:25:36.999Z,1.03
2022-11-26T13:28:25.519Z,0.83
2022-11-26T13:31:11.341Z,0.60
2022-11-26T13:33:59.377Z,0.80
2022-11-26T13:36:26.935Z,0.47
2022-11-26T13:38:54.283Z,2.00
2022-11-26T13:41:24.242Z,0.57
2022-11-26T13:44:04.409Z,0.40
2022-11-26T13:46:47.931Z,1.13
2022-11-26T13:49:18.489Z,1.80
2022-11-26T13:51:51.533Z,1.33
2022-11-26T13:54:21.335Z,3.10
2022-11-26T13:56:49.526Z,0.50
2022-11-26T13:59:26.854Z,1.33
2022-11-26T14:01:56.048Z,1.97
2022-11-26T14:04:23.522Z,0.67
2022-11-26T14:07:06.168Z,0.60
2022-11-26T14:09:56.802Z,0.37
2022-11-26T14:12:25.505Z,2.10
2022-11-26T14:14:55.922Z,1.47
2022-11-26T14:17:31.155Z,1.03
2022-11-26T14:20:02.238Z,0.57
2022-11-26T14:22:31.320Z,1.70
2022-11-26T14:25:00.842Z,1.83
2022-11-26T14:27:35.122Z,0.67
2022-11-26T14:30:08.738Z,0.90
2022-11-26T14:32:56.521Z,2.97
2022-11-26T14:35:34.410Z,1.50
2022-11-26T14:38:02.959Z,0.50
2022-11-26T14:40:34.929Z,1.60
2022-11-26T14:43:22.523Z,0.93
2022-11-26T14:46:01.632Z,2.43
2022-11-26T14:48:29.962Z,0.47
2022-11-26T14:50:58.999Z,0.67
2022-11-26T14:53:28.923Z,2.87
2022-11-26T14:55:57.189Z,0.47
2022-11-26T14:58:45.479Z,1.50
2022-11-26T15:01:15.775Z,1.40
2022-11-26T15:03:43.464Z,0.50
2022-11-26T15:06:25.339Z,0.77
2022-11-26T15:09:04.722Z,1.13
2022-11-26T15:11:32.118Z,0.37
2022-11-26T15:13:59.606Z,2.10
2022-11-26T15:16:38.165Z,0.60
2022-11-26T15:19:06.800Z,1.63
2022-11-26T15:21:34.562Z,0.30
2022-11-26T15:24:04.932Z,0.70
2022-11-26T15:26:34.053Z,0.40
2022-11-26T15:29:01.759Z,2.50
2022-11-26T15:31:41.934Z,0.90
2022-11-26T15:34:13.604Z,1.13
2022-11-26T15:36:43.114Z,0.67
2022-11-26T15:39:25.080Z,0.50
2022-11-26T15:41:53.840Z,0.87
2022-11-26T15:44:23.280Z,1.83
2022-11-26T15:46:52.289Z,0.60
2022-11-26T15:49:21.601Z,3.00
2022-11-26T15:51:55.405Z,0.63
2022-11-26T15:54:24.098Z,1.20
2022-11-26T15:56:53.775Z,0.60
2022-11-26T15:59:21.637Z,1.03
2022-11-26T16:01:49.203Z,0.80
2022-11-26T16:04:38.547Z,1.07
2022-11-26T16:07:17.596Z,0.77
2022-11-26T16:09:45.803Z,1.63
2022-11-26T16:12:32.843Z,0.80
2022-11-26T16:15:19.482Z,0.50
2022-11-26T16:17:47.487Z,1.23
2022-11-26T16:20:25.161Z,1.73
2022-11-26T16:22:53.839Z,1.13
2022-11-26T16:25:25.082Z,1.73
2022-11-26T16:28:15.439Z,2.17
2022-11-26T16:30:44.376Z,1.57
2022-11-26T16:33:11.961Z,0.80
2022-11-26T16:35:45.694Z,1.30
2022-11-26T16:38:24.646Z,0.53
2022-11-26T16:40:52.463Z,1.20
2022-11-26T16:43:19.805Z,4.47
2022-11-26T16:45:48.259Z,8.63
2022-11-26T16:48:24.241Z,8.70
2022-11-26T16:50:51.921Z,4.50
2022-11-26T16:53:22.680Z,3.50
2022-11-26T16:55:50.606Z,2.23
2022-11-26T16:58:28.520Z,2.27
2022-11-26T17:00:56.521Z,1.43
2022-11-26T17:03:24.747Z,3.53
2022-11-26T17:05:54.639Z,1.87
2022-11-26T17:08:22.125Z,3.27
2022-11-26T17:10:51.033Z,1.60
2022-11-26T17:13:18.798Z,2.07
2022-11-26T17:15:46.323Z,1.73
2022-11-26T17:18:18.378Z,1.93
2022-11-26T17:20:49.000Z,2.70
2022-11-26T17:23:16.771Z,1.57
2022-11-26T17:25:45.401Z,1.63
2022-11-26T17:28:13.838Z,1.70
2022-11-26T17:30:42.338Z,3.17
2022-11-26T17:33:10.682Z,1.27
2022-11-26T17:35:38.521Z,2.33
2022-11-26T17:38:11.361Z,4.27
2022-11-26T17:40:38.721Z,3.43
2022-11-26T17:43:06.043Z,2.70
2022-11-26T17:45:33.321Z,15.43
2022-11-26T17:48:00.648Z,2.43
2022-11-26T17:50:29.359Z,2.33
2022-11-26T17:52:57.085Z,2.47
2022-11-26T17:55:25.879Z,2.07
2022-11-26T17:57:55.393Z,3.00
2022-11-26T18:00:24.824Z,3.00
2022-11-26T18:02:52.478Z,4.53
2022-11-26T18:05:20.098Z,4.27
2022-11-26T18:07:47.460Z,2.80
2022-11-26T18:10:15.960Z,1.67
2022-11-26T18:12:43.420Z,3.87
2022-11-26T18:15:17.251Z,1.50
2022-11-26T18:17:50.838Z,3.17
2022-11-26T18:20:19.293Z,1.87
2022-11-26T18:22:47.082Z,2.10
2022-11-26T18:25:15.121Z,2.10
2022-11-26T18:27:42.522Z,2.90
2022-11-26T18:30:09.983Z,1.80
2022-11-26T18:32:38.281Z,3.70
2022-11-26T18:35:06.521Z,2.80
2022-11-26T18:37:37.730Z,1.73
2022-11-26T18:40:05.683Z,1.57
2022-11-26T18:42:37.543Z,1.60
2022-11-26T18:45:06.521Z,1.57
2022-11-26T18:47:33.961Z,0.67
2022-11-26T18:50:01.402Z,2.87
2022-11-26T18:52:28.718Z,1.87
2022-11-26T18:54:56.146Z,0.93
2022-11-26T18:57:23.484Z,1.27
2022-11-26T18:59:51.601Z,1.03
2022-11-26T19:02:18.996Z,1.00
2022-11-26T19:04:48.438Z,1.30
2022-11-26T19:07:15.925Z,3.07
2022-11-26T19:09:43.505Z,1.13
2022-11-26T19:12:12.887Z,0.70
2022-11-26T19:14:40.284Z,1.30
2022-11-26T19:17:07.775Z,1.93
2022-11-26T19:19:35.320Z,1.60
2022-11-26T19:22:02.761Z,1.87
2022-11-26T19:24:30.764Z,1.53
2022-11-26T19:26:58.423Z,1.63
2022-11-26T19:29:28.801Z,1.60
2022-11-26T19:31:56.051Z,2.67
2022-11-26T19:34:23.562Z,2.43
2022-11-26T19:36:53.410Z,2.37
2022-11-26T19:39:20.704Z,2.53
2022-11-26T19:41:48.082Z,1.97
2022-11-26T19:44:15.551Z,1.90
2022-11-26T19:46:43.006Z,2.10
2022-11-26T19:49:12.422Z,1.63
2022-11-26T19:51:40.336Z,1.20
2022-11-26T19:54:08.363Z,1.23
2022-11-26T19:56:36.480Z,1.20
2022-11-26T19:59:04.448Z,2.33
2022-11-26T20:01:33.097Z,2.03
2022-11-26T20:04:01.360Z,2.97
2022-11-26T20:06:29.643Z,3.70
2022-11-26T20:09:00.308Z,2.77
2022-11-26T20:11:28.961Z,2.33
2022-11-26T20:13:57.322Z,2.67
2022-11-26T20:16:26.069Z,4.27
2022-11-26T20:18:53.684Z,1.67
2022-11-26T20:21:22.120Z,1.73
2022-11-26T20:23:50.043Z,0.83
2022-11-26T20:26:27.997Z,1.27
2022-11-26T20:28:56.041Z,2.60
2022-11-26T20:31:24.596Z,1.40
2022-11-26T20:33:55.765Z,3.67
2022-11-26T20:36:24.202Z,1.43
2022-11-26T20:38:55.319Z,1.63
2022-11-26T20:41:23.283Z,1.57
2022-11-26T20:43:56.637Z,1.43
2022-11-26T20:46:25.891Z,1.47
2022-11-26T20:48:53.498Z,1.27
2022-11-26T20:51:22.240Z,4.23
2022-11-26T20:53:50.905Z,2.20
2022-11-26T20:56:19.772Z,1.00
2022-11-26T20:58:47.403Z,2.77
2022-11-26T21:01:20.958Z,1.80
2022-11-26T21:03:48.919Z,2.37
2022-11-26T21:06:16.935Z,1.20
2022-11-26T21:08:44.643Z,1.77
2022-11-26T21:11:12.921Z,1.73
2022-11-26T21:13:40.627Z,1.30
2022-11-26T21:16:09.042Z,1.37
2022-11-26T21:18:36.441Z,1.87
2022-11-26T21:21:14.083Z,1.70
2022-11-26T21:23:42.323Z,1.43
2022-11-26T21:26:11.354Z,2.00
2022-11-26T21:28:38.799Z,6.27
2022-11-26T21:31:11.073Z,4.20
2022-11-26T21:33:38.521Z,0.63
2022-11-26T21:36:09.568Z,1.13
2022-11-26T21:38:37.279Z,0.70
2022-11-26T21:41:05.959Z,0.83
2022-11-26T21:43:33.402Z,0.50
2022-11-26T21:46:04.454Z,0.90
2022-11-26T21:48:32.407Z,1.27
2022-11-26T21:51:00.319Z,1.37
2022-11-26T21:53:27.761Z,1.63
2022-11-26T21:55:56.124Z,2.73
2022-11-26T21:58:23.640Z,0.83
2022-11-26T22:00:53.003Z,0.90
2022-11-26T22:03:20.361Z,1.13
2022-11-26T22:05:47.689Z,1.07
2022-11-26T22:08:15.158Z,0.97
2022-11-26T22:10:42.523Z,1.07
2022-11-26T22:13:09.761Z,1.17
2022-11-26T22:15:37.193Z,0.70
2022-11-26T22:18:04.521Z,1.07
2022-11-26T22:20:31.924Z,2.17
2022-11-26T22:22:59.245Z,0.90
2022-11-26T22:25:26.681Z,2.03
2022-11-26T22:27:54.005Z,1.03
2022-11-26T22:30:21.416Z,0.93
2022-11-26T22:32:48.765Z,0.97
2022-11-26T22:35:16.120Z,2.87
2022-11-26T22:37:43.602Z,0.93
2022-11-26T22:40:11.282Z,0.60
2022-11-26T22:42:41.322Z,0.60
2022-11-26T22:45:09.083Z,0.50
2022-11-26T22:47:36.441Z,1.53
2022-11-26T22:50:03.803Z,0.60
2022-11-26T22:52:31.262Z,1.57
2022-11-26T22:54:58.601Z,0.50
2022-11-26T22:57:25.887Z,0.70
2022-11-26T22:59:53.282Z,1.30
2022-11-26T23:02:20.632Z,0.60
2022-11-26T23:04:47.846Z,0.50
2022-11-26T23:07:15.303Z,1.30
2022-11-26T23:09:46.558Z,0.70
2022-11-26T23:12:14.325Z,0.70
2022-11-26T23:14:41.786Z,1.37
2022-11-26T23:17:09.240Z,0.73
2022-11-26T23:19:36.525Z,1.53
2022-11-26T23:22:03.884Z,0.57
2022-11-26T23:24:31.454Z,0.70
2022-11-26T23:26:59.201Z,1.70
2022-11-26T23:29:26.521Z,0.70
2022-11-26T23:31:54.067Z,0.30
2022-11-26T23:34:21.722Z,1.47
2022-11-26T23:36:49.046Z,0.97
2022-11-26T23:39:16.638Z,1.20
2022-11-26T23:41:44.841Z,2.83
2022-11-26T23:44:12.382Z,0.73
2022-11-26T23:46:39.883Z,1.07
2022-11-26T23:49:07.323Z,1.37
2022-11-26T23:51:34.961Z,1.00
2022-11-26T23:54:02.445Z,0.60
2022-11-26T23:56:31.520Z,0.70
2022-11-26T23:59:01.767Z,0.30
